Weather observations for the past three days for
Roseau, Roseau Municipal Airport/Rudy Billberg Field
Metric (Imperial)
Date Time (cdt) Wind (kph) Vis. (km) Weather Sky Cond. Temperature (ºC) Relative Humidity Wind Chill (°C) Heat Index (°C) Pressure Precipitation (cm)
Air Dwpt 6 hour altimeter (cm) sea level (mb) 1 hr 3 hr 6 hr
Max. Min.
02 14:35 NW 19 12.87 Light Rain BKN065 BKN080 BKN100 14.3 3.6 49% 75.69 0.0
02 14:15 W 15 12.87 Mostly Cloudy SCT070 BKN095 15.3 2.4 42% 75.67 0.0
02 13:55 W 19 14.48 Partly Cloudy SCT095 15.5 1.7 40% 75.69 0.0
02 13:35 W 20 12.87 Mostly Cloudy BKN100 15.5 1.4 39% 75.69 0.0
02 13:15 W 20 12.87 Mostly Cloudy BKN110 15.4 0.3 36% 75.69 0.0
02 12:55 W 20 14.48 Mostly Cloudy BKN100 16.8 1 16.9 2.7 35% 75.67 0.0
02 12:35 SW 17 16.09 Overcast OVC100 16.7 1.6 36% 75.67 0.0
02 12:15 SW 13 16.09 Mostly Cloudy BKN100 15.3 1 38% 75.69 0.0
02 11:55 S 20 14.48 Mostly Cloudy BKN110 13.9 0.6 41% 75.72 0.0
02 11:35 S 20 16.09 Overcast OVC100 13.4 0.7 42% 75.72 0.0
02 11:15 S 20 14.48 Mostly Cloudy BKN100 12.8 0.3 43% 75.74 0.0
02 10:55 S 20 16.09 A Few Clouds FEW100 12 0 44% 75.77 0.0
02 10:35 S 20 16.09 Fair CLR 12.1 -0.3 43% 75.77 0.0
02 10:15 S 20 16.09 Fair CLR 11.2 -0.4 45% 75.79 0.0
02 09:55 S 22 16.09 Fair CLR 10.8 -0.9 45% 75.82 0.0
02 09:35 S 26 16.09 Fair CLR 10.6 -1.4 44% 75.82 0.0
02 09:15 S 20 16.09 Fair CLR 10 -1.4 45% 8 75.82 0.0
02 08:55 S 20 16.09 Fair CLR 8.9 -1.9 47% 6 75.84 0.0
02 08:35 S 22 16.09 Fair CLR 8.2 -1.8 50% 5 75.87 0.0
02 08:15 S 22 14.48 Fair CLR 6.9 -2.3 52% 4 75.9 0.0
02 07:55 S 20 14.48 Fair CLR 5.5 -2.8 55% 2 75.92 0.0
02 07:35 S 17 14.48 Fair CLR 4.2 -2.8 61% 1 75.95 0.0
02 07:15 S 13 12.87 Fair CLR 3.5 -2.7 64% 1 75.97 0.0
02 06:55 S 13 16.09 A Few Clouds FEW130 2.2 -3.2 2.2 -0.8 68% -1 76 0.0
02 06:35 S 19 16.09 Partly Cloudy SCT120 2 -3.5 67% -2 76 0.0
02 06:15 S 19 16.09 Mostly Cloudy BKN120 BKN140 1.5 -3.4 70% -3 76.02 0.0
02 05:55 S 19 16.09 Mostly Cloudy BKN140 0.9 -3.5 73% -3 76.05 0.0
02 05:35 S 17 16.09 Partly Cloudy SCT140 0 -3.8 76% -4 76.05 0.0
02 05:15 S 15 16.09 Fair CLR -0.6 -4.1 77% -5 76.1 0.0
02 04:55 S 11 16.09 Fair CLR -0.4 -4.2 76% -4 76.12 0.0
02 04:35 S 9 16.09 Fair CLR -0.2 -4.1 75% -3 76.12 0.0
02 04:15 S 13 16.09 Fair CLR -0.4 -4 77% -4 76.15 0.0
02 03:55 S 13 16.09 Fair CLR -0.4 -4 77% -4 76.15 0.0
02 03:35 S 11 16.09 A Few Clouds FEW140 0.5 -3.4 75% -3 76.15 0.0
02 03:15 S 11 16.09 Mostly Cloudy BKN140 -0.4 -3.6 79% -4 76.17 0.0
02 02:55 S 11 16.09 Overcast OVC150 0.6 -3.9 72% -2 76.2 0.0
02 02:35 S 11 16.09 Mostly Cloudy BKN150 0.2 -3.8 75% -3 76.23 0.0
02 02:15 S 9 16.09 A Few Clouds FEW150 0.9 -3.6 72% -2 76.23 0.0
02 01:55 S 13 16.09 Fair CLR 1.5 -3.9 68% -2 76.25 0.0
02 01:35 S 11 16.09 Fair CLR 0.6 -3.9 72% -2 76.25 0.0
02 01:15 S 11 16.09 Fair CLR 1 -3.5 72% -2 76.28 0.0
02 00:55 S 9 16.09 Fair CLR 0.9 -3.4 11.8 0.1 73% -2 76.28 0.0
02 00:35 S 9 16.09 Fair CLR 0.8 -3.5 73% -2 76.28 0.0
02 00:15 S 9 16.09 Fair CLR 1.8 -3.7 67% -1 76.28 0.0
01 23:55 S 11 16.09 Fair CLR 0.7 -3.1 76% -2 76.28 0.0
01 23:35 SE 11 16.09 Fair CLR 1.8 -3.1 70% -1 76.28 0.0
01 23:15 Calm 16.09 Fair CLR 2.5 -3.3 66% 76.28 0.0
01 22:55 S 6 14.48 Fair CLR 3.5 -2.9 63% 76.3 0.0
01 22:35 S 7 12.87 Fair CLR 3.3 -3.4 62% 2 76.3 0.0
01 22:15 W 6 12.87 Fair CLR 3.8 -3 62% 76.3 0.0
01 21:55 W 7 14.48 Fair CLR 6.5 -4.7 45% 5 76.3 0.0
01 21:35 W 7 14.48 Fair CLR 7.5 -5 41% 6 76.3 0.0
01 21:15 W 9 14.48 Fair CLR 8.2 -4.4 41% 7 76.33 0.0
01 20:55 W 9 12.87 Fair CLR 8.6 -4.5 40% 7 76.3 0.0
01 20:35 W 9 14.48 Fair CLR 9.1 -4.4 39% 8 76.33 0.0
01 20:15 W 11 12.87 Fair CLR 10 -4 37% 9 76.3 0.0
01 19:55 W 11 14.48 Fair CLR 11 -4.3 34% 76.33 0.0
01 19:35 W 15 12.87 Fair CLR 11.3 -4.1 34% 76.33 0.0
01 19:15 W 15 14.48 Fair CLR 11.7 -5.1 31% 76.33 0.0
01 18:55 W 19 12.87 Fair CLR 11.9 -5.6 12.7 8.6 29% 76.33 0.0
01 18:35 W 19 12.87 A Few Clouds FEW075 12.1 -5 30% 76.33 0.0
01 18:15 W 17 14.48 A Few Clouds FEW075 12.2 -4.5 31% 76.35 0.0
01 17:55 W 19 12.87 Fair CLR 12.1 -4 33% 76.35 0.0
01 17:35 W 11 12.87 Fair CLR 11.9 -4.6 32% 76.35 0.0
01 17:15 W 19 12.87 Fair CLR 12.1 -4 33% 76.35 0.0
01 16:55 W 9 12.87 Fair CLR 12.1 -4.2 32% 76.35 0.0
01 16:35 Vrbl 6 12.87 Fair CLR 11.7 -4.6 32% 76.38 0.0
01 16:15 N 7 12.87 A Few Clouds FEW070 10.8 -4.1 35% 76.38 0.0
01 15:55 W 15 12.87 Partly Cloudy SCT065 11 -3.8 36% 76.4 0.0
01 15:35 Vrbl 7 14.48 Partly Cloudy SCT065 10.7 -3.2 38% 76.43 0.0
01 15:15 W 15 14.48 Mostly Cloudy BKN060 11.5 -3 36% 76.43 0.0
01 14:55 NW 15 12.87 Mostly Cloudy BKN060 9.9 -2.8 41% 8 76.43 0.0
01 14:35 W 13 12.87 Overcast OVC060 11 -2.8 38% 76.45 0.0
01 14:15 W 7 14.48 Mostly Cloudy BKN065 9.9 -4.1 37% 9 76.45 0.0
01 13:55 Vrbl 7 14.48 Partly Cloudy SCT060 9.5 -4.4 38% 9 76.45 0.0
01 13:35 Vrbl 6 14.48 Fair CLR 9.5 -4 39% 76.48 0.0
01 13:15 Calm 14.48 Fair CLR 8.8 -4.2 40% 76.48 0.0
01 12:55 Vrbl 7 14.48 A Few Clouds FEW055 9.3 -3.8 9.4 -1.9 40% 9 76.5 0.0
01 12:35 Vrbl 9 14.48 Fair CLR 9.2 -4.2 39% 8 76.5 0.0
01 12:15 NW 9 14.48 Fair CLR 8.3 -3.6 43% 7 76.53 0.0
01 11:55 Vrbl 9 14.48 Fair CLR 7.9 -4.1 43% 7 76.53 0.0
01 11:35 SW 6 14.48 Fair CLR 8.1 -5 39% 76.53 0.0
01 11:15 W 7 16.09 Fair CLR 7.8 -4.8 41% 7 76.53 0.0
01 10:55 Vrbl 9 16.09 Fair CLR 6.6 -3.8 48% 5 76.56 0.0
01 10:35 Vrbl 9 14.48 Fair CLR 6.6 -3.5 49% 5 76.56 0.0
01 10:15 W 7 14.48 Fair CLR 5.3 -4.1 51% 4 76.56 0.0
01 09:55 NW 9 14.48 Fair CLR 4.4 -3.5 57% 2 76.56 0.0
01 09:35 W 9 14.48 Fair CLR 3.8 -3.1 61% 2 76.56 0.0
01 09:15 W 9 14.48 Fair CLR 2.9 -2.8 66% 1 76.56 0.0
01 08:55 W 7 14.48 Fair CLR 1.9 -3.4 68% 0 76.56 0.0
01 08:35 NW 7 14.48 Fair CLR 1.5 -3.4 70% -0 76.56 0.0
01 08:15 W 9 12.87 Fair CLR 0.9 -2.8 77% -2 76.56 0.0
01 07:55 W 7 14.48 Fair CLR -0.1 -3.4 79% -2 76.53 0.0
01 07:35 Calm 12.87 Fair CLR -0.7 -3.5 82% 76.53 0.0
01 07:15 W 7 14.48 Fair CLR -1.3 -4.2 81% -4 76.53 0.0
01 06:55 W 6 12.87 Fair CLR -2.5 -5.1 -0.2 -5 83% 76.5 0.0
01 06:35 Calm 14.48 Fair CLR -3.2 -4.8 89% 76.5 0.0
01 06:15 Calm 14.48 Fair CLR -3.9 -5.5 89% 76.48 0.0
01 05:55 Calm 16.09 Fair CLR -4.2 -5.6 90% 76.48 0.0
01 05:35 Calm 16.09 Fair CLR -4.3 -5.7 90% 76.48 0.0
01 05:15 Calm 16.09 Fair CLR -4.4 -6.1 88% 76.45 0.0
01 04:55 Calm 16.09 Fair CLR -4.7 -6.4 88% 76.45 0.0
01 04:35 Calm 16.09 Fair CLR -4.5 -6.4 87% 76.45 0.0
01 04:15 Calm 16.09 Fair CLR -4 -5.9 87% 76.45 0.0
01 03:55 Calm 16.09 Fair CLR -3.3 -6.5 79% 76.45 0.0
01 03:35 Calm 16.09 Fair CLR -2.3 -5.3 80% 76.43 0.0
01 03:15 Calm 16.09 Fair CLR -2.8 -6.3 77% 76.43 0.0
01 02:55 Calm 14.48 Fair CLR -1.3 -5.7 72% 76.43 0.0
01 02:35 N 6 16.09 Fair CLR -0.6 -5 72% 76.43 0.0
01 02:15 N 6 16.09 Fair CLR -0.4 -5.5 69% 76.43 0.0
01 01:55 Calm 16.09 Fair CLR -1.3 -5.7 72% 76.43 0.0
01 01:35 NW 6 16.09 Fair CLR -1.2 -5.4 73% 76.43 0.0
01 01:15 NW 6 16.09 Fair CLR -0.7 -5.3 71% 76.43 0.0
01 00:55 NW 6 16.09 Fair CLR -0.3 -5.3 7.1 -0.7 69% 76.43 0.0
01 00:35 NW 6 16.09 Fair CLR -0.2 -5.2 69% 76.43 0.0
01 00:15 NW 7 16.09 Fair CLR -0.1 -5.2 69% -2 76.43 0.0
30 23:55 N 11 16.09 Fair CLR -0.2 -4.7 72% -3 76.43 0.0
30 23:35 NW 13 16.09 Fair CLR 0.4 -4.8 68% -3 76.43 0.0
30 23:15 N 15 16.09 A Few Clouds FEW060 1.3 -4.3 67% -2 76.43 0.0
30 22:55 NW 15 16.09 Mostly Cloudy BKN060 1.7 -3.8 67% -2 76.43 0.0
30 22:35 NW 15 16.09 Overcast OVC060 1.8 -3.4 69% -2 76.43 0.0
30 22:15 NW 15 16.09 Overcast OVC060 3 -3.3 64% -0 76.4 0.0
30 21:55 N 13 16.09 Overcast OVC060 4.3 -3.8 56% 2 76.38 0.0
30 21:35 NW 13 16.09 Overcast OVC060 3.9 -3.2 60% 1 76.38 0.0
30 21:15 NW 11 14.48 Overcast OVC060 4.4 -3.1 59% 2 76.38 0.0
30 20:55 W 9 14.48 Overcast OVC065 4.9 -4 53% 3 76.35 0.0
30 20:35 NW 11 14.48 Mostly Cloudy BKN065 4.8 -3.4 56% 3 76.35 0.0
30 20:15 NW 11 14.48 A Few Clouds FEW060 5.7 -4.6 48% 4 76.35 0.0
30 19:55 NW 13 14.48 Fair CLR 6.7 -5.1 43% 4 76.35 0.0
30 19:35 N 15 14.48 Fair CLR 6.9 -5.4 42% 4 76.35 0.0
30 19:15 N 15 14.48 Fair CLR 7 -4.9 43% 5 76.35 0.0
30 18:55 N 11 16.09 Fair CLR 6.4 -4.4 7.3 3.8 46% 4 76.35 0.0
30 18:35 N 19 14.48 A Few Clouds FEW055 6.5 -4.4 46% 3 76.35 0.0
30 18:15 NE 13 16.09 Mostly Cloudy BKN055 6.6 -4.4 46% 4 76.35 0.0
30 17:55 N 13 14.48 Mostly Cloudy BKN055 7.2 -4.7 43% 5 76.35 0.0
30 17:35 N 19 14.48 Partly Cloudy SCT055 7 -4.3 45% 4 76.38 0.0
30 17:15 NW 15 14.48 Mostly Cloudy BKN055 6.7 -5 43% 4 76.35 0.0
30 16:55 Vrbl 7 14.48 Mostly Cloudy BKN055 6.8 -4.9 43% 6 76.38 0.0
30 16:35 Vrbl 11 16.09 Mostly Cloudy BKN049 6.6 -4.3 46% 5 76.38 0.0
30 16:15 Vrbl 11 16.09 Overcast OVC047 6.3 -4.6 46% 4 76.38 0.0
30 15:55 NW 13 16.09 Overcast OVC049 6 -4.9 46% 4 76.4 0.0
30 15:35 N 11 16.09 Mostly Cloudy BKN048 5.5 -4.7 48% 3 76.4 0.0
30 15:15 W 13 16.09 Overcast OVC047 5.7 -5.1 46% 3 76.4 0.0
30 14:55 W 19 16.09 Overcast OVC045 4.9 -5 49% 1 76.43 0.0
30 14:35 Vrbl 11 16.09 Overcast OVC047 5.1 -4.9 49% 3 76.43 0.0
30 14:15 W 9 16.09 Overcast OVC045 5.1 -5.1 48% 3 76.45 0.0
30 13:55 W 11 16.09 Overcast OVC045 4.4 -5.6 49% 2 76.45 0.0
30 13:35 W 17 G 28 16.09 Overcast OVC044 4.5 -5.6 48% 1 76.48 0.0
30 13:15 W 13 16.09 Overcast OVC043 4.1 -5.7 49% 1 76.48 0.0
30 12:55 NW 15 16.09 Overcast OVC043 4 -5.7 4.1 -3.2 50% 1 76.48 0.0
30 12:35 NW 13 16.09 Overcast OVC043 3.6 -5.5 52% 1 76.5 0.0
30 12:15 W 15 16.09 Overcast OVC043 3.9 -6.2 48% 1 76.48 0.0
30 11:55 N 13 16.09 Overcast OVC043 3.1 -6.6 49% 0 76.5 0.0
30 11:35 NW 11 14.48 Overcast OVC042 3 -6.4 50% 0 76.5 0.0
30 11:15 Vrbl 6 14.48 Overcast OVC042 2.8 -6.5 51% 76.5 0.0
30 10:55 N 15 14.48 Overcast OVC041 2.6 -6.4 52% -1 76.5 0.0
30 10:35 NW 15 14.48 Overcast OVC041 2.5 -6.5 52% -1 76.5 0.0
30 10:15 NE 15 16.09 Overcast OVC043 2.1 -5.9 56% -1 76.53 0.0
30 09:55 N 11 16.09 Overcast OVC043 1.9 -5.7 58% -1 76.53 0.0
30 09:35 N 11 14.48 Overcast OVC043 1.6 -5.3 61% -1 76.53 0.0
30 09:15 N 9 16.09 Overcast OVC043 1 -4.7 66% -2 76.53 0.0
30 08:55 N 13 16.09 Overcast OVC043 0.4 -5.2 66% -3 76.53 0.0
30 08:35 NE 7 14.48 Mostly Cloudy BKN042 -0.1 -4.5 73% -2 76.53 0.0
30 08:15 N 9 14.48 Fair CLR -0.9 -4.6 76% -4 76.53 0.0
30 07:55 N 6 16.09 Fair CLR -1.7 -4.7 80% 76.53 0.0
30 07:35 NW 7 16.09 Fair CLR -2.3 -5.3 80% -5 76.53 0.0
30 07:15 NW 6 16.09 Fair CLR -2.8 -5.4 83% 76.53 0.0
30 06:55 NW 7 16.09 Fair CLR -3.1 -5.5 -1.1 -3.3 84% -6 76.53 0.0
30 06:35 NW 7 16.09 Fair CLR -3.2 -5.6 84% -6 76.53 0.0
30 06:15 NW 9 16.09 A Few Clouds FEW037 -3 -5.3 84% -6 76.53 0.0
30 05:55 W 7 16.09 Mostly Cloudy BKN037 -3.1 -5.1 86% -6 76.53 0.0
30 05:35 NW 6 16.09 Mostly Cloudy BKN037 -2.8 -5 85% 76.53 0.0
30 05:15 NW 9 16.09 Overcast OVC035 -2.4 -4.5 86% -6 76.53 0.0
30 04:55 NW 9 16.09 Overcast OVC035 -2 -4.4 84% -5 76.53 0.0
30 04:35 W 9 16.09 Overcast OVC035 -1.8 -4.2 84% -5 76.53 0.0
30 04:15 NW 11 16.09 Overcast OVC035 -1.6 -4 84% -5 76.53 0.0
30 03:55 NW 7 16.09 Overcast OVC035 -1.1 -4.2 80% -3 76.5 0.0
30 03:35 NW 9 16.09 Overcast OVC035 -1.2 -3.9 82% -4 76.5 0.0
30 03:15 NW 7 16.09 Overcast OVC035 -1.2 -4.2 80% -4 76.5 0.0
30 02:55 NW 7 16.09 Overcast OVC034 -1.2 -4 82% -4 76.5 0.0
30 02:35 NW 7 16.09 Overcast OVC035 -1.2 -4.1 81% -4 76.5 0.0
30 02:15 W 6 16.09 Overcast BKN034 OVC041 -1.5 -4.3 81% 76.5 0.0
30 01:55 W 7 16.09 Partly Cloudy SCT040 -2.2 -4.9 82% -5 76.5 0.0
30 01:35 NW 7 16.09 Fair CLR -2.2 -5 81% -5 76.5 0.0
30 01:15 NW 7 16.09 Fair CLR -2.3 -4.8 83% -5 76.5 0.0
30 00:55 NW 6 16.09 Fair CLR -2.3 -5 2.7 -2.5 82% 76.5 0.0
30 00:35 NW 6 16.09 Fair CLR -2.3 -5.3 80% 76.5 0.0
30 00:15 NW 6 16.09 A Few Clouds FEW042 -1.7 -5.2 77% 76.5 0.0
29 23:55 Calm 16.09 Mostly Cloudy BKN042 -0.9 -5 74% 76.48 0.0
29 23:35 Calm 16.09 Mostly Cloudy BKN043 -0.2 -5 70% 76.48 0.0
29 23:15 Calm 16.09 Mostly Cloudy BKN044 -0.4 -4.7 73% 76.5 0.0
29 22:55 N 6 16.09 Mostly Cloudy BKN038 0.4 -4.1 72% 76.5 0.0
29 22:35 N 6 16.09 Overcast OVC038 0.8 -4.2 70% 76.5 0.0
29 22:15 N 9 16.09 Overcast OVC039 1.6 -4.2 66% -1 76.5 0.0
29 21:55 N 9 16.09 Overcast OVC039 1.6 -3.9 67% -1 76.5 0.0
29 21:35 N 6 16.09 Overcast OVC039 1.5 -3.7 69% 76.5 0.0
29 21:15 NW 11 16.09 Overcast OVC039 1.7 -4.1 66% -1 76.5 0.0
29 20:55 N 13 16.09 Overcast OVC040 2 -4.7 62% -1 76.48 0.0
29 20:35 NW 15 16.09 Overcast OVC040 2.1 -5 60% -1 76.48 0.0
29 20:15 N 19 16.09 Overcast OVC040 2.2 -4.9 60% -2 76.48 0.0
29 19:55 N 13 16.09 Overcast OVC040 2.4 -4.6 60% -1 76.48 0.0
29 19:35 N 19 16.09 Overcast OVC041 2.5 -5.2 57% -1 76.48 0.0
29 19:15 N 19 16.09 Overcast OVC041 2.6 -5.2 57% -1 76.48 0.0
29 18:55 NW 19 14.48 Overcast OVC039 2.8 -5 3.7 2.4 57% -1 76.48 0.0
29 18:35 N 17 16.09 Overcast OVC039 2.8 -4.9 57% -1 76.45 0.0
29 18:15 NW 22 14.48 Overcast OVC040 2.8 -5.3 56% -2 76.45 0.0
29 17:55 NW 26 14.48 Overcast OVC039 3 -5 56% -2 76.45 0.0
29 17:35 N 22 14.48 Overcast OVC039 2.9 -5 56% -1 76.45 0.0
29 17:15 N 19 14.48 Overcast OVC038 2.9 -5 56% -1 76.45 0.0
29 16:55 N 19 16.09 Overcast OVC036 2.7 -4.7 59% -1 76.45 0.0
29 16:35 N 15 14.48 Overcast OVC033 2.5 -4.8 59% -1 76.45 0.0
29 16:15 NW 22 14.48 Overcast OVC032 2.5 -4.1 62% -2 76.45 0.0
29 15:55 N 20 14.48 Overcast OVC033 2.6 -4.1 62% -2 76.45 0.0
29 15:35 NW 17 14.48 Overcast OVC033 2.7 -4.1 61% -1 76.45 0.0
29 15:15 NW 22 14.48 Overcast OVC033 2.8 -3.6 63% -2 76.45 0.0
29 14:55 N 24 14.48 Overcast OVC033 3.1 -4.1 60% -1 76.43 0.0
Date Time (cdt) Wind (kph) Vis. (km) Weather Sky Cond. Air Dwpt Max. Min. Relative Humidity Wind Chill (°C) Heat Index (°C) altimeter (cm) sea level (mb) 1 hr 3 hr 6 hr
6 hour
Temperature (ºC) Pressure Precipitation (cm)